»·PEaware :: SWA717 KBOI-KLAS

SWA717 :: KBOI-KLAS

FLIGHT INFORMATION

Flight Status: Arrived
Operator:
Southwest Airlines
More flights by this operator :: More flights under this callsign
Pilot: Benjamin K. (16300)
Aircraft: BOEING 737-700
(B737)
More flights by this aircraft type
Origin: KBOI Boise Air Terminal/Gowen
United States
Destination: KLAS McCarran Intl
United States
More flights between these airports :: More routes between these airports
Route: +BOI3 ROARR LYONS CRITO WINEN MPIRE SITEE2
File this flight plan on PilotEdge
Remarks:
Altitude:
(Current/Filed)
37,000ft
Speed:
(Current/Filed)
450kts
Departed: 02-Mar-18 04:14 PM
Arrived: 02-Mar-18 05:48 PM
Distance/Time
Traveled:
452nm/1:34
Distance/Time
To Go:
Arrived

Flight Plot

Page will automatically refresh every two minutes.

Flight plan parsing failed; only flown route is shown


Map Options




Map Legend


Flown Route
Filed Route
Departure Airport
Arrival Airport
Navaid (VOR, NDB)
Fix

Horizontal Profiles

Position Reports

Time Latitude Longitude Heading Altitude Ground
Speed
02-Mar-18 15:03 43.566746 -116.219013 4 2841ft 0kts
02-Mar-18 15:04 43.566746 -116.219013 4 2841ft 0kts
02-Mar-18 15:05 43.566746 -116.219013 4 2841ft 0kts
02-Mar-18 15:06 43.566746 -116.219013 4 2841ft 0kts
02-Mar-18 15:07 43.566746 -116.219013 4 2841ft 0kts
02-Mar-18 15:08 43.566746 -116.219013 4 2841ft 0kts
02-Mar-18 15:09 43.566746 -116.219013 4 2841ft 0kts
02-Mar-18 15:10 43.566746 -116.219013 4 2841ft 0kts
02-Mar-18 15:11 43.566746 -116.219013 4 2841ft 0kts
02-Mar-18 15:12 43.566746 -116.219013 4 2841ft 0kts
02-Mar-18 15:13 43.566746 -116.219013 4 2841ft 0kts
02-Mar-18 15:14 43.566746 -116.219013 4 2841ft 0kts
02-Mar-18 15:15 43.566746 -116.219013 4 2841ft 0kts
02-Mar-18 15:16 43.566746 -116.219013 4 2841ft 0kts
02-Mar-18 15:17 43.566746 -116.219013 4 2841ft 0kts
02-Mar-18 15:18 43.566746 -116.219013 4 2841ft 0kts
02-Mar-18 15:19 43.566746 -116.219013 4 2841ft 0kts
02-Mar-18 15:20 43.566746 -116.219013 4 2841ft 0kts
02-Mar-18 15:21 43.566746 -116.219013 4 2841ft 0kts
02-Mar-18 15:22 43.566746 -116.219013 4 2841ft 0kts
02-Mar-18 15:23 43.566746 -116.219013 4 2841ft 0kts
02-Mar-18 15:24 43.566746 -116.219013 4 2841ft 0kts
02-Mar-18 15:25 43.566746 -116.219013 4 2841ft 0kts
02-Mar-18 15:26 43.566746 -116.219013 4 2841ft 0kts
02-Mar-18 15:27 43.566746 -116.219013 4 2841ft 0kts
02-Mar-18 15:28 43.566746 -116.219013 4 2841ft 0kts
02-Mar-18 15:29 43.566746 -116.219013 4 2841ft 0kts
02-Mar-18 15:30 43.566746 -116.219013 4 2841ft 0kts
02-Mar-18 15:31 43.566746 -116.219013 4 2841ft 0kts
02-Mar-18 15:32 43.566746 -116.219013 4 2841ft 0kts
02-Mar-18 15:33 43.566746 -116.219013 4 2841ft 0kts
02-Mar-18 15:34 43.566746 -116.219013 4 2841ft 0kts
02-Mar-18 15:35 43.566746 -116.219013 4 2841ft 0kts
02-Mar-18 15:44 43.566757 -116.218350 314 2841ft 0kts
02-Mar-18 15:45 43.566757 -116.218350 314 2841ft 0kts
02-Mar-18 15:46 43.566757 -116.218350 314 2841ft 0kts
02-Mar-18 15:47 43.566757 -116.218350 314 2841ft 0kts
02-Mar-18 15:48 43.566757 -116.218350 314 2841ft 0kts
02-Mar-18 15:49 43.566757 -116.218350 314 2841ft 0kts
02-Mar-18 15:50 43.566757 -116.218350 314 2841ft 0kts
02-Mar-18 15:51 43.566757 -116.218350 314 2841ft 0kts
02-Mar-18 15:52 43.566757 -116.218350 314 2841ft 0kts
02-Mar-18 15:53 43.566757 -116.218350 314 2841ft 0kts
02-Mar-18 15:54 43.566757 -116.218350 314 2841ft 0kts
02-Mar-18 15:55 43.566757 -116.218350 314 2841ft 0kts
02-Mar-18 15:56 43.566757 -116.218350 314 2841ft 0kts
02-Mar-18 15:57 43.566757 -116.218350 314 2841ft 0kts
02-Mar-18 15:58 43.566757 -116.218350 314 2841ft 0kts
02-Mar-18 15:59 43.566757 -116.218350 314 2841ft 0kts
02-Mar-18 16:00 43.566757 -116.218350 314 2842ft 0kts
02-Mar-18 16:01 43.566757 -116.218350 314 2841ft 0kts
02-Mar-18 16:02 43.566757 -116.218350 314 2841ft 0kts
02-Mar-18 16:03 43.566757 -116.218350 314 2841ft 0kts
02-Mar-18 16:04 43.566757 -116.218350 314 2841ft 0kts
02-Mar-18 16:05 43.566757 -116.218350 314 2841ft 0kts
02-Mar-18 16:06 43.566757 -116.218350 314 2841ft 0kts
02-Mar-18 16:07 43.566757 -116.218350 314 2841ft 0kts
02-Mar-18 16:08 43.566757 -116.218350 314 2841ft 0kts
02-Mar-18 16:09 43.566757 -116.218350 314 2841ft 0kts
02-Mar-18 16:10 43.566757 -116.218350 314 2841ft 0kts
02-Mar-18 16:11 43.566605 -116.218136 314 2841ft 0kts
02-Mar-18 16:12 43.566605 -116.218136 314 2841ft 0kts
02-Mar-18 16:13 43.566605 -116.218136 314 2841ft 0kts
02-Mar-18 16:14 43.566605 -116.218136 314 2841ft 0kts
02-Mar-18 16:15 43.566605 -116.218136 314 2841ft 0kts
02-Mar-18 16:16 43.566639 -116.218543 267 2841ft 14kts
02-Mar-18 16:17 43.564713 -116.217041 114 2841ft 17kts
02-Mar-18 16:18 43.562398 -116.210179 114 2841ft 24kts
02-Mar-18 16:19 43.560170 -116.203571 114 2841ft 13kts
02-Mar-18 16:20 43.559401 -116.202720 204 2841ft 6kts
02-Mar-18 16:21 43.565621 -116.223429 295 2980ft 157kts
02-Mar-18 16:22 43.586386 -116.289641 291 5184ft 229kts
02-Mar-18 16:23 43.611788 -116.378987 290 8619ft 263kts
02-Mar-18 16:24 43.640147 -116.478346 287 11658ft 303kts
02-Mar-18 16:25 43.638320 -116.586756 217 14951ft 310kts
02-Mar-18 16:26 43.556691 -116.562480 149 16046ft 340kts
02-Mar-18 16:27 43.513253 -116.443007 110 19336ft 371kts
02-Mar-18 16:28 43.484610 -116.302362 111 22053ft 392kts
02-Mar-18 16:29 43.454218 -116.153923 112 24427ft 412kts
02-Mar-18 16:30 43.422279 -115.997843 112 26340ft 436kts
02-Mar-18 16:31 43.388815 -115.833363 114 28009ft 457kts
02-Mar-18 16:32 43.353475 -115.661115 115 29513ft 476kts
02-Mar-18 16:33 43.316115 -115.483308 115 30905ft 491kts
02-Mar-18 16:34 43.256021 -115.321589 144 32153ft 461kts
02-Mar-18 16:35 43.163449 -115.201507 149 33523ft 457kts
02-Mar-18 16:36 43.070813 -115.082640 148 34875ft 458kts
02-Mar-18 16:37 42.978458 -114.962894 148 36166ft 456kts
02-Mar-18 16:38 42.886219 -114.844240 148 36913ft 458kts
02-Mar-18 16:39 42.792555 -114.730191 161 36913ft 434kts
02-Mar-18 16:40 42.683035 -114.702117 187 36919ft 393kts
02-Mar-18 16:41 42.573918 -114.695492 187 36919ft 392kts
02-Mar-18 16:42 42.464637 -114.689840 188 36919ft 393kts
02-Mar-18 16:43 42.355659 -114.684561 188 36919ft 391kts
02-Mar-18 16:44 42.246913 -114.679459 188 36917ft 391kts
02-Mar-18 16:45 42.137828 -114.674419 188 36915ft 391kts
02-Mar-18 16:46 42.029327 -114.669447 188 36913ft 390kts
02-Mar-18 16:47 41.920509 -114.664480 188 36911ft 390kts
02-Mar-18 16:48 41.812065 -114.659562 188 36907ft 390kts
02-Mar-18 16:49 41.703636 -114.654660 188 36904ft 390kts
02-Mar-18 16:50 41.594831 -114.649757 188 36900ft 390kts
02-Mar-18 16:51 41.498413 -114.645427 188 36897ft 391kts
02-Mar-18 16:52 41.389828 -114.640564 188 36894ft 391kts
02-Mar-18 16:53 41.280871 -114.635701 188 36892ft 391kts
02-Mar-18 16:54 41.172329 -114.630874 188 36893ft 391kts
02-Mar-18 16:55 41.063269 -114.626029 188 36892ft 391kts
02-Mar-18 16:56 40.954600 -114.621233 188 36891ft 391kts
02-Mar-18 16:57 40.845616 -114.616435 188 36889ft 391kts
02-Mar-18 16:58 40.736927 -114.611664 188 36882ft 391kts
02-Mar-18 16:59 40.628225 -114.606909 188 36881ft 391kts
02-Mar-18 17:00 40.519231 -114.602155 188 36876ft 391kts
02-Mar-18 17:01 40.410563 -114.597426 188 36873ft 391kts
02-Mar-18 17:02 40.301656 -114.592709 188 36869ft 391kts
02-Mar-18 17:03 40.193044 -114.588021 188 36864ft 391kts
02-Mar-18 17:04 40.084436 -114.583345 188 36856ft 390kts
02-Mar-18 17:05 39.975562 -114.578675 188 36847ft 391kts
02-Mar-18 17:06 39.866978 -114.574028 188 36838ft 391kts
02-Mar-18 17:07 39.758438 -114.569398 188 36827ft 391kts
02-Mar-18 17:08 39.649366 -114.564761 188 36818ft 391kts
02-Mar-18 17:09 39.540757 -114.560146 188 36806ft 390kts
02-Mar-18 17:10 39.431790 -114.555544 188 36798ft 392kts
02-Mar-18 17:11 39.322890 -114.548747 179 36795ft 403kts
02-Mar-18 17:12 39.216995 -114.482769 161 36795ft 432kts
02-Mar-18 17:13 39.113098 -114.403280 161 36800ft 433kts
02-Mar-18 17:14 39.009771 -114.323446 160 36806ft 434kts
02-Mar-18 17:15 38.906551 -114.243104 160 36812ft 434kts
02-Mar-18 17:16 38.802945 -114.162834 160 36821ft 435kts
02-Mar-18 17:17 38.699210 -114.082776 160 36828ft 435kts
02-Mar-18 17:18 38.595086 -114.002703 160 36838ft 437kts
02-Mar-18 17:19 38.490869 -113.922831 160 36844ft 437kts
02-Mar-18 17:20 38.386599 -113.843190 160 36855ft 437kts
02-Mar-18 17:21 38.281968 -113.763540 160 36865ft 437kts
02-Mar-18 17:22 38.177294 -113.683964 160 36870ft 437kts
02-Mar-18 17:23 38.072932 -113.605027 160 36875ft 437kts
02-Mar-18 17:24 37.968578 -113.526898 164 36884ft 427kts
02-Mar-18 17:25 37.860764 -113.502477 188 36437ft 383kts
02-Mar-18 17:26 37.754532 -113.503304 189 35885ft 382kts
02-Mar-18 17:27 37.648163 -113.505048 189 35146ft 382kts
02-Mar-18 17:28 37.543624 -113.517421 206 33790ft 368kts
02-Mar-18 17:29 37.449595 -113.568929 209 32149ft 373kts
02-Mar-18 17:30 37.354477 -113.624427 209 29927ft 382kts
02-Mar-18 17:31 37.256640 -113.682281 209 27672ft 393kts
02-Mar-18 17:32 37.156504 -113.741950 209 26098ft 403kts
02-Mar-18 17:33 37.054831 -113.802356 209 25266ft 402kts
02-Mar-18 17:34 36.953952 -113.862090 209 24391ft 400kts
02-Mar-18 17:35 36.858080 -113.918748 209 23919ft 349kts
02-Mar-18 17:36 36.771466 -113.969854 209 23921ft 346kts
02-Mar-18 17:37 36.684398 -114.020934 209 23922ft 346kts
02-Mar-18 17:38 36.597632 -114.072795 216 23918ft 344kts
02-Mar-18 17:39 36.536977 -114.162193 236 23915ft 338kts
02-Mar-18 17:40 36.485489 -114.261563 237 21143ft 353kts
02-Mar-18 17:41 36.430839 -114.367629 236 15658ft 362kts
02-Mar-18 17:42 36.382008 -114.462420 236 14087ft 287kts
02-Mar-18 17:43 36.341949 -114.540313 236 12130ft 262kts
02-Mar-18 17:44 36.302627 -114.616453 234 10248ft 261kts
02-Mar-18 17:45 36.261447 -114.687395 205 9784ft 248kts
02-Mar-18 17:46 36.193200 -114.680697 197 9039ft 247kts
02-Mar-18 17:47 36.126998 -114.704269 197 8478ft 242kts
02-Mar-18 17:48 36.073330 -114.738242 246 7858ft 218kts
02-Mar-18 17:49 36.073113 -114.813382 264 6838ft 214kts
02-Mar-18 17:50 36.074063 -114.875868 263 5945ft 208kts
02-Mar-18 17:51 36.073937 -114.944825 262 4933ft 187kts
02-Mar-18 17:52 36.074026 -115.003109 262 3975ft 160kts
02-Mar-18 17:53 36.073834 -115.056279 262 3236ft 146kts
02-Mar-18 17:54 36.073704 -115.103490 264 2591ft 128kts
02-Mar-18 17:55 36.073577 -115.138584 267 2189ft 35kts
02-Mar-18 17:56 36.074662 -115.145789 300 2189ft 6kts
02-Mar-18 17:57 36.074702 -115.145873 299 2189ft 3kts
02-Mar-18 17:58 36.077683 -115.145178 97 2189ft 13kts
02-Mar-18 17:59 36.080505 -115.145319 269 2189ft 2kts
02-Mar-18 18:00 36.080505 -115.145763 269 2189ft 0kts

Navigation Log

Ident Type
Flight plan parsing failed, navigation log unavailable